createdAt,value
2018-09-10T00:01:33.191Z,62.31
2018-09-10T00:04:02.077Z,62.02
2018-09-10T00:06:30.923Z,62.21
2018-09-10T00:08:59.771Z,62.06
2018-09-10T00:11:28.612Z,62.32
2018-09-10T00:13:57.463Z,62.37
2018-09-10T00:16:26.272Z,62.14
2018-09-10T00:18:55.163Z,62.45
2018-09-10T00:21:24.033Z,62.53
2018-09-10T00:23:52.862Z,62.45
2018-09-10T00:26:21.725Z,62.82
2018-09-10T00:28:50.582Z,61.89
2018-09-10T00:31:19.434Z,62.75
2018-09-10T00:33:48.304Z,63.05
2018-09-10T00:36:17.182Z,63.19
2018-09-10T00:38:46.029Z,63.28
2018-09-10T00:41:14.874Z,63.64
2018-09-10T00:43:43.745Z,63.81
2018-09-10T00:46:12.643Z,64.18
2018-09-10T00:48:41.511Z,64.52
2018-09-10T00:51:10.403Z,63.36
2018-09-10T00:53:39.244Z,64.32
2018-09-10T00:56:08.126Z,64.58
2018-09-10T00:58:36.990Z,64.84
2018-09-10T01:01:05.843Z,65.22
2018-09-10T01:03:34.670Z,65.08
2018-09-10T01:06:03.542Z,65.11
2018-09-10T01:08:32.366Z,65.27
2018-09-10T01:11:01.191Z,65.54
2018-09-10T01:13:30.139Z,65.88
2018-09-10T01:15:58.925Z,65.88
2018-09-10T01:18:27.804Z,66.25
2018-09-10T01:20:56.691Z,66.23
2018-09-10T01:23:25.553Z,67.18
2018-09-10T01:25:54.426Z,67.58
2018-09-10T01:28:23.292Z,67.54
2018-09-10T01:30:52.149Z,67.58
2018-09-10T01:33:38.571Z,67.53
2018-09-10T01:36:07.428Z,67.61
2018-09-10T01:38:36.263Z,67.86
2018-09-10T01:41:05.151Z,68.21
2018-09-10T01:43:34.011Z,68.47
2018-09-10T01:46:03.085Z,68.53
2018-09-10T01:48:31.916Z,68.62
2018-09-10T01:51:00.790Z,68.74
2018-09-10T01:53:29.626Z,68.70
2018-09-10T01:55:58.604Z,69.00
2018-09-10T01:58:27.479Z,69.09
2018-09-10T02:00:56.381Z,69.10
2018-09-10T02:03:25.234Z,69.14
2018-09-10T02:05:54.066Z,69.64
2018-09-10T02:08:22.948Z,69.70
2018-09-10T02:10:51.790Z,69.75
2018-09-10T02:13:20.671Z,68.99
2018-09-10T02:15:49.506Z,69.89
2018-09-10T02:18:18.974Z,69.91
2018-09-10T02:20:47.787Z,70.24
2018-09-10T02:23:16.857Z,70.50
2018-09-10T02:25:45.715Z,70.70
2018-09-10T02:28:14.575Z,70.97
2018-09-10T02:30:43.439Z,71.15
2018-09-10T02:33:12.301Z,71.44
2018-09-10T02:35:41.173Z,71.71
2018-09-10T02:38:10.039Z,71.86
2018-09-10T02:40:38.913Z,71.46
2018-09-10T02:43:07.778Z,71.93
2018-09-10T02:45:36.637Z,72.21
2018-09-10T02:48:05.514Z,72.30
2018-09-10T02:50:34.371Z,72.29
2018-09-10T02:53:03.252Z,72.34
2018-09-10T02:55:32.131Z,72.54
2018-09-10T02:58:01.008Z,72.70
2018-09-10T03:00:29.867Z,73.13
2018-09-10T03:02:58.733Z,73.10
2018-09-10T03:05:27.593Z,73.17
2018-09-10T03:07:56.453Z,73.34
2018-09-10T03:10:25.306Z,73.62
2018-09-10T03:12:54.988Z,74.01
2018-09-10T03:15:23.863Z,73.96
2018-09-10T03:17:53.114Z,73.85
2018-09-10T03:20:22.271Z,73.85
2018-09-10T03:22:51.129Z,73.86
2018-09-10T03:25:19.978Z,73.90
2018-09-10T03:27:48.793Z,74.16
2018-09-10T03:30:17.690Z,74.43
2018-09-10T03:32:46.566Z,74.27
2018-09-10T03:35:15.428Z,74.39
2018-09-10T03:37:44.254Z,74.81
2018-09-10T03:40:13.135Z,74.91
2018-09-10T03:42:42.011Z,74.10
2018-09-10T03:45:10.855Z,73.79
2018-09-10T03:47:39.719Z,74.89
2018-09-10T03:50:08.594Z,75.21
2018-09-10T03:52:37.459Z,75.17
2018-09-10T03:55:06.302Z,74.27
2018-09-10T03:57:35.186Z,75.48
2018-09-10T04:00:04.154Z,75.71
2018-09-10T04:02:33.033Z,75.63
2018-09-10T04:05:01.867Z,76.13
2018-09-10T04:07:30.737Z,76.20
2018-09-10T04:09:59.571Z,76.83
2018-09-10T04:12:28.425Z,76.72
2018-09-10T04:14:57.288Z,76.99
2018-09-10T04:17:26.149Z,77.07
2018-09-10T04:20:08.020Z,77.23
2018-09-10T04:22:37.166Z,77.54
2018-09-10T04:25:06.325Z,77.73
2018-09-10T04:27:35.861Z,78.15
2018-09-10T04:30:13.438Z,78.22
2018-09-10T04:32:42.310Z,77.93
2018-09-10T04:35:11.955Z,78.20
2018-09-10T04:37:41.236Z,77.46
2018-09-10T04:40:10.122Z,78.42
2018-09-10T04:42:38.989Z,78.52
2018-09-10T04:45:07.936Z,78.45
2018-09-10T04:47:36.781Z,78.59
2018-09-10T04:50:06.024Z,78.69
2018-09-10T04:52:34.887Z,78.67
2018-09-10T04:55:03.839Z,79.04
2018-09-10T04:57:32.733Z,79.36
2018-09-10T05:00:01.633Z,79.24
2018-09-10T05:02:30.502Z,79.37
2018-09-10T05:04:59.406Z,79.54
2018-09-10T05:07:28.295Z,79.83
2018-09-10T05:09:57.308Z,79.85
2018-09-10T05:12:26.047Z,79.92
2018-09-10T05:14:54.909Z,80.19
2018-09-10T05:17:23.760Z,80.32
2018-09-10T05:19:52.660Z,80.60
2018-09-10T05:22:21.506Z,80.67
2018-09-10T05:24:50.428Z,80.61
2018-09-10T05:27:19.330Z,80.54
2018-09-10T05:29:48.218Z,79.81
2018-09-10T05:32:17.108Z,80.74
2018-09-10T05:34:46.007Z,80.72
2018-09-10T05:37:14.934Z,80.84
2018-09-10T05:39:43.784Z,80.93
2018-09-10T05:42:12.673Z,80.79
2018-09-10T05:44:41.547Z,80.94
2018-09-10T05:47:10.502Z,80.81
2018-09-10T05:49:39.383Z,80.71
2018-09-10T05:52:08.225Z,80.53
2018-09-10T05:54:37.108Z,81.07
2018-09-10T05:57:06.001Z,81.35
2018-09-10T05:59:34.869Z,81.40
2018-09-10T06:02:03.708Z,81.15
2018-09-10T06:04:32.584Z,81.52
2018-09-10T06:07:01.462Z,81.32
2018-09-10T06:09:30.377Z,81.52
2018-09-10T06:11:59.255Z,81.43
2018-09-10T06:14:28.141Z,81.15
2018-09-10T06:16:57.020Z,81.28
2018-09-10T06:19:25.931Z,81.52
2018-09-10T06:21:54.800Z,81.68
2018-09-10T06:24:23.709Z,81.47
2018-09-10T06:26:52.576Z,80.78
2018-09-10T06:29:21.474Z,80.97
2018-09-10T06:31:50.314Z,81.01
2018-09-10T06:34:19.291Z,80.89
2018-09-10T06:36:48.072Z,80.65
2018-09-10T06:39:16.927Z,80.63
2018-09-10T06:41:45.901Z,80.43
2018-09-10T06:44:14.770Z,79.31
2018-09-10T06:46:43.628Z,80.39
2018-09-10T06:49:12.523Z,79.96
2018-09-10T06:51:41.362Z,79.61
2018-09-10T06:54:10.591Z,79.41
2018-09-10T06:56:39.432Z,79.06
2018-09-10T06:59:08.410Z,78.90
2018-09-10T07:01:37.284Z,79.05
2018-09-10T07:04:06.201Z,78.60
2018-09-10T07:06:35.134Z,78.29
2018-09-10T07:09:05.576Z,77.70
2018-09-10T07:11:34.429Z,77.12
2018-09-10T07:14:03.318Z,76.80
2018-09-10T07:16:32.137Z,76.15
2018-09-10T07:19:01.063Z,75.54
2018-09-10T07:21:31.083Z,74.06
2018-09-10T07:23:59.955Z,75.01
2018-09-10T07:26:28.825Z,74.93
2018-09-10T07:28:57.655Z,75.06
2018-09-10T07:31:26.542Z,74.94
2018-09-10T07:33:55.404Z,74.71
2018-09-10T07:36:24.271Z,74.32
2018-09-10T07:38:53.123Z,73.75
2018-09-10T07:41:21.979Z,73.30
2018-09-10T07:43:51.431Z,73.12
2018-09-10T07:46:20.527Z,72.68
2018-09-10T07:48:49.397Z,72.78
2018-09-10T07:51:18.237Z,72.64
2018-09-10T07:53:47.143Z,72.18
2018-09-10T07:56:15.989Z,72.05
2018-09-10T07:58:44.852Z,69.49
2018-09-10T08:01:13.743Z,70.67
2018-09-10T08:03:42.615Z,70.42
2018-09-10T08:06:11.478Z,69.73
2018-09-10T08:08:40.333Z,69.62
2018-09-10T08:11:09.197Z,68.57
2018-09-10T08:13:38.054Z,67.44
2018-09-10T08:16:06.900Z,66.66
2018-09-10T08:18:35.752Z,65.43
2018-09-10T08:21:04.579Z,64.35
2018-09-10T08:23:33.426Z,63.06
2018-09-10T08:26:02.330Z,64.10
2018-09-10T08:28:31.219Z,62.61
2018-09-10T08:31:00.100Z,62.88
2018-09-10T08:33:28.951Z,62.60
2018-09-10T08:35:57.864Z,62.39
2018-09-10T08:38:26.713Z,61.50
2018-09-10T08:40:55.550Z,61.11
2018-09-10T08:43:24.444Z,60.70
2018-09-10T08:45:53.374Z,59.16
2018-09-10T08:48:22.373Z,58.71
2018-09-10T08:50:51.058Z,59.39
2018-09-10T08:53:20.101Z,59.18
2018-09-10T08:55:49.097Z,57.89
2018-09-10T08:58:17.848Z,57.45
2018-09-10T09:00:46.697Z,57.19
2018-09-10T09:03:15.538Z,57.23
2018-09-10T09:05:44.377Z,57.83
2018-09-10T09:08:13.211Z,58.75
2018-09-10T09:10:42.126Z,58.62
2018-09-10T09:13:10.989Z,58.15
2018-09-10T09:15:39.828Z,57.88
2018-09-10T09:18:08.662Z,57.21
2018-09-10T09:20:37.540Z,55.70
2018-09-10T09:23:06.413Z,57.63
2018-09-10T09:25:35.216Z,57.52
2018-09-10T09:28:04.082Z,57.49
2018-09-10T09:30:32.961Z,57.99
2018-09-10T09:33:01.792Z,58.90
2018-09-10T09:35:48.079Z,58.99
2018-09-10T09:38:35.009Z,58.07
2018-09-10T09:41:21.902Z,55.61
2018-09-10T09:44:08.727Z,52.09
2018-09-10T09:46:37.665Z,51.02
2018-09-10T09:49:06.528Z,51.40
2018-09-10T09:51:35.417Z,51.94
2018-09-10T09:54:04.289Z,51.24
2018-09-10T09:56:33.172Z,51.28
2018-09-10T09:59:02.030Z,51.34
2018-09-10T10:01:48.846Z,52.12
2018-09-10T10:04:17.783Z,50.23
2018-09-10T10:06:46.626Z,50.85
2018-09-10T10:09:15.535Z,51.27
2018-09-10T10:11:44.452Z,50.99
2018-09-10T10:14:13.241Z,51.57
2018-09-10T10:16:42.122Z,50.60
2018-09-10T10:19:11.008Z,49.74
2018-09-10T10:21:39.961Z,49.58
2018-09-10T10:24:08.787Z,50.72
2018-09-10T10:26:37.687Z,49.70
2018-09-10T10:29:06.586Z,49.93
2018-09-10T10:31:35.464Z,50.17
2018-09-10T10:34:04.354Z,50.77
2018-09-10T10:36:33.240Z,51.10
2018-09-10T10:39:02.384Z,51.29
2018-09-10T10:41:31.225Z,51.76
2018-09-10T10:44:00.120Z,52.11
2018-09-10T10:46:29.174Z,51.22
2018-09-10T10:48:58.015Z,51.55
2018-09-10T10:51:26.875Z,50.54
2018-09-10T10:53:55.714Z,50.37
2018-09-10T10:56:24.551Z,50.41
2018-09-10T10:58:53.383Z,50.01
2018-09-10T11:01:22.258Z,50.76
2018-09-10T11:03:51.123Z,50.66
2018-09-10T11:06:19.954Z,50.31
2018-09-10T11:08:49.530Z,50.00
2018-09-10T11:11:18.521Z,49.42
2018-09-10T11:13:47.355Z,46.96
2018-09-10T11:16:16.189Z,48.55
2018-09-10T11:18:45.047Z,48.50
2018-09-10T11:21:13.914Z,48.02
2018-09-10T11:23:42.744Z,49.96
2018-09-10T11:26:11.590Z,50.24
2018-09-10T11:28:40.448Z,50.19
2018-09-10T11:31:09.348Z,50.81
2018-09-10T11:33:38.114Z,51.20
2018-09-10T11:36:07.000Z,51.64
2018-09-10T11:38:35.824Z,52.14
2018-09-10T11:41:04.673Z,51.72
2018-09-10T11:43:33.482Z,51.97
2018-09-10T11:46:02.328Z,52.28
2018-09-10T11:48:31.169Z,52.42
2018-09-10T11:51:00.048Z,53.29
2018-09-10T11:53:28.944Z,51.97
2018-09-10T11:55:57.811Z,52.45
2018-09-10T11:58:26.766Z,51.47
2018-09-10T12:00:55.681Z,52.19
2018-09-10T12:03:24.531Z,51.21
2018-09-10T12:05:53.399Z,52.14
2018-09-10T12:08:22.312Z,51.70
2018-09-10T12:10:51.097Z,52.40
2018-09-10T12:13:19.936Z,51.66
2018-09-10T12:15:48.815Z,52.33
2018-09-10T12:18:17.669Z,52.54
2018-09-10T12:20:46.561Z,52.63
2018-09-10T12:23:15.416Z,53.40
2018-09-10T12:25:44.260Z,53.71
2018-09-10T12:28:13.109Z,54.29
2018-09-10T12:30:42.005Z,53.85
2018-09-10T12:33:10.828Z,53.46
2018-09-10T12:35:39.665Z,51.85
2018-09-10T12:38:08.609Z,52.32
2018-09-10T12:40:37.458Z,52.31
2018-09-10T12:43:06.294Z,52.09
2018-09-10T12:45:35.907Z,50.96
2018-09-10T12:48:04.839Z,50.77
2018-09-10T12:50:33.895Z,49.62
2018-09-10T12:53:02.751Z,48.64
2018-09-10T12:55:31.574Z,50.23
2018-09-10T12:58:00.407Z,50.67
2018-09-10T13:00:29.264Z,50.35
2018-09-10T13:02:58.094Z,49.25
2018-09-10T13:05:26.944Z,50.00
2018-09-10T13:07:55.782Z,50.44
2018-09-10T13:10:24.617Z,50.67
2018-09-10T13:12:53.505Z,50.91
2018-09-10T13:15:22.377Z,51.26
2018-09-10T13:17:51.215Z,51.15
2018-09-10T13:20:20.046Z,51.37
2018-09-10T13:22:48.866Z,51.82
2018-09-10T13:25:17.705Z,51.54
2018-09-10T13:27:46.582Z,52.09
2018-09-10T13:30:15.419Z,51.53
2018-09-10T13:32:44.261Z,51.52
2018-09-10T13:35:13.137Z,51.53
2018-09-10T13:37:42.008Z,51.66
2018-09-10T13:40:10.841Z,51.51
2018-09-10T13:42:39.679Z,51.64
2018-09-10T13:45:08.524Z,51.42
2018-09-10T13:47:37.356Z,51.41
2018-09-10T13:50:06.218Z,51.77
2018-09-10T13:52:35.080Z,51.58
2018-09-10T13:55:03.958Z,51.68
2018-09-10T13:57:32.821Z,51.90
2018-09-10T14:00:01.660Z,52.36
2018-09-10T14:02:30.503Z,52.44
2018-09-10T14:04:59.364Z,51.63
2018-09-10T14:07:28.220Z,51.85
2018-09-10T14:09:57.093Z,52.20
2018-09-10T14:12:25.982Z,52.04
2018-09-10T14:14:54.821Z,52.24
2018-09-10T14:17:23.649Z,52.58
2018-09-10T14:19:52.505Z,52.92
2018-09-10T14:22:21.346Z,53.11
2018-09-10T14:24:50.201Z,53.36
2018-09-10T14:27:19.083Z,53.54
2018-09-10T14:29:47.895Z,53.64
2018-09-10T14:32:16.755Z,53.76
2018-09-10T14:34:45.633Z,53.92
2018-09-10T14:37:14.440Z,53.45
2018-09-10T14:39:43.278Z,53.64
2018-09-10T14:42:13.547Z,53.76
2018-09-10T14:44:42.891Z,53.52
2018-09-10T14:47:12.199Z,54.15
2018-09-10T14:49:41.388Z,53.98
2018-09-10T14:52:10.789Z,53.84
2018-09-10T14:54:39.939Z,54.78
2018-09-10T14:57:09.184Z,54.54
2018-09-10T14:59:38.407Z,54.67
2018-09-10T15:02:07.660Z,54.58
2018-09-10T15:04:36.950Z,54.86
2018-09-10T15:07:06.147Z,53.76
2018-09-10T15:09:35.374Z,53.70
2018-09-10T15:12:04.694Z,53.49
2018-09-10T15:14:33.634Z,53.64
2018-09-10T15:17:02.420Z,53.14
2018-09-10T15:19:31.270Z,53.29
2018-09-10T15:22:00.216Z,52.99
2018-09-10T15:24:29.114Z,52.26
2018-09-10T15:26:58.109Z,52.68
2018-09-10T15:29:26.948Z,52.41
2018-09-10T15:31:55.809Z,51.92
2018-09-10T15:34:24.703Z,51.82
2018-09-10T15:36:53.496Z,51.90
2018-09-10T15:39:22.330Z,51.92
2018-09-10T15:41:51.175Z,51.59
2018-09-10T15:44:20.081Z,51.73
2018-09-10T15:46:48.896Z,52.10
2018-09-10T15:49:17.759Z,51.48
2018-09-10T15:51:46.582Z,51.40
2018-09-10T15:54:15.446Z,51.70
2018-09-10T15:56:44.286Z,51.84
2018-09-10T15:59:13.141Z,52.02
2018-09-10T16:01:41.984Z,52.58
2018-09-10T16:04:10.838Z,52.23
2018-09-10T16:06:39.709Z,52.48
2018-09-10T16:09:09.098Z,52.62
2018-09-10T16:11:38.002Z,52.09
2018-09-10T16:14:06.817Z,52.46
2018-09-10T16:16:35.683Z,52.77
2018-09-10T16:19:04.550Z,52.69
2018-09-10T16:21:33.435Z,52.35
2018-09-10T16:24:02.264Z,53.50
2018-09-10T16:26:31.124Z,53.36
2018-09-10T16:28:59.971Z,54.29
2018-09-10T16:31:28.816Z,54.37
2018-09-10T16:33:57.664Z,54.18
2018-09-10T16:36:26.483Z,54.81
2018-09-10T16:38:55.317Z,54.50
2018-09-10T16:41:24.164Z,54.54
2018-09-10T16:43:53.048Z,54.77
2018-09-10T16:46:21.877Z,55.59
2018-09-10T16:48:50.713Z,55.23
2018-09-10T16:51:19.628Z,55.83
2018-09-10T16:53:48.409Z,56.15
2018-09-10T16:56:17.219Z,56.32
2018-09-10T16:58:46.045Z,56.08
2018-09-10T17:01:14.883Z,56.33
2018-09-10T17:03:43.724Z,57.00
2018-09-10T17:06:12.652Z,56.98
2018-09-10T17:08:41.756Z,56.85
2018-09-10T17:11:10.576Z,57.02
2018-09-10T17:13:39.457Z,57.45
2018-09-10T17:16:08.283Z,56.97
2018-09-10T17:18:37.117Z,57.14
2018-09-10T17:21:06.150Z,57.52
2018-09-10T17:23:34.978Z,57.53
2018-09-10T17:26:03.806Z,57.53
2018-09-10T17:28:32.680Z,57.84
2018-09-10T17:31:01.540Z,57.52
2018-09-10T17:33:30.384Z,58.39
2018-09-10T17:35:59.216Z,58.58
2018-09-10T17:38:28.065Z,58.97
2018-09-10T17:40:56.909Z,58.81
2018-09-10T17:43:25.758Z,59.05
2018-09-10T17:45:54.650Z,59.19
2018-09-10T17:48:23.520Z,59.38
2018-09-10T17:50:52.384Z,59.30
2018-09-10T17:53:21.224Z,59.58
2018-09-10T17:55:50.066Z,59.82
2018-09-10T17:58:19.136Z,59.18
2018-09-10T18:00:48.398Z,59.98
2018-09-10T18:03:17.165Z,60.22
2018-09-10T18:05:46.004Z,60.57
2018-09-10T18:08:15.006Z,60.89
2018-09-10T18:10:43.881Z,59.86
2018-09-10T18:13:12.742Z,60.70
2018-09-10T18:15:41.532Z,60.78
2018-09-10T18:18:10.402Z,61.12
2018-09-10T18:20:39.227Z,61.65
2018-09-10T18:23:08.092Z,61.33
2018-09-10T18:25:36.962Z,61.50
2018-09-10T18:28:05.853Z,61.50
2018-09-10T18:30:34.725Z,61.27
2018-09-10T18:33:03.565Z,61.51
2018-09-10T18:35:32.455Z,61.75
2018-09-10T18:38:01.254Z,61.84
2018-09-10T18:40:30.117Z,61.94
2018-09-10T18:42:58.933Z,62.10
2018-09-10T18:45:27.793Z,61.94
2018-09-10T18:47:56.599Z,62.35
2018-09-10T18:50:25.473Z,62.58
2018-09-10T18:52:54.303Z,62.70
2018-09-10T18:55:23.167Z,62.78
2018-09-10T18:57:52.439Z,62.74
2018-09-10T19:00:21.282Z,63.14
2018-09-10T19:02:50.121Z,62.23
2018-09-10T19:05:19.025Z,62.64
2018-09-10T19:07:47.876Z,63.19
2018-09-10T19:10:16.719Z,63.16
2018-09-10T19:12:45.550Z,63.31
2018-09-10T19:15:14.399Z,63.03
2018-09-10T19:17:43.264Z,62.92
2018-09-10T19:20:12.102Z,62.35
2018-09-10T19:22:40.937Z,62.86
2018-09-10T19:25:09.796Z,63.03
2018-09-10T19:27:38.686Z,63.04
2018-09-10T19:30:07.528Z,63.01
2018-09-10T19:32:36.384Z,63.21
2018-09-10T19:35:05.237Z,62.47
2018-09-10T19:37:34.133Z,63.04
2018-09-10T19:40:02.916Z,63.10
2018-09-10T19:42:31.824Z,63.17
2018-09-10T19:45:00.662Z,62.97
2018-09-10T19:47:29.489Z,63.32
2018-09-10T19:49:58.351Z,63.19
2018-09-10T19:52:27.264Z,63.19
2018-09-10T19:54:56.174Z,62.05
2018-09-10T19:57:25.003Z,62.94
2018-09-10T19:59:53.877Z,62.06
2018-09-10T20:02:22.698Z,62.88
2018-09-10T20:04:51.546Z,63.10
2018-09-10T20:07:20.400Z,63.28
2018-09-10T20:09:49.380Z,63.24
2018-09-10T20:12:18.141Z,63.70
2018-09-10T20:14:47.062Z,63.88
2018-09-10T20:17:15.903Z,64.15
2018-09-10T20:19:44.740Z,64.32
2018-09-10T20:22:15.340Z,64.59
2018-09-10T20:24:44.185Z,65.01
2018-09-10T20:27:13.091Z,65.06
2018-09-10T20:29:41.939Z,65.46
2018-09-10T20:32:10.777Z,65.83
2018-09-10T20:34:39.627Z,66.11
2018-09-10T20:37:08.493Z,66.29
2018-09-10T20:39:37.340Z,66.01
2018-09-10T20:42:06.190Z,66.14
2018-09-10T20:44:35.053Z,66.88
2018-09-10T20:47:03.909Z,65.72
2018-09-10T20:49:32.761Z,66.60
2018-09-10T20:52:01.732Z,66.68
2018-09-10T20:54:30.576Z,65.73
2018-09-10T20:56:59.447Z,66.43
2018-09-10T20:59:28.341Z,66.83
2018-09-10T21:01:57.156Z,67.09
2018-09-10T21:04:26.041Z,67.39
2018-09-10T21:06:54.877Z,67.52
2018-09-10T21:09:23.770Z,68.04
2018-09-10T21:11:52.601Z,68.58
2018-09-10T21:14:21.481Z,68.82
2018-09-10T21:16:50.365Z,68.73
2018-09-10T21:19:19.807Z,68.95
2018-09-10T21:21:48.676Z,69.18
2018-09-10T21:24:17.523Z,68.93
2018-09-10T21:26:46.387Z,69.04
2018-09-10T21:29:15.242Z,69.34
2018-09-10T21:31:44.136Z,69.72
2018-09-10T21:34:13.007Z,69.59
2018-09-10T21:36:41.895Z,69.82
2018-09-10T21:39:11.223Z,69.82
2018-09-10T21:41:40.137Z,69.74
2018-09-10T21:44:09.716Z,69.98
2018-09-10T21:46:38.604Z,70.23
2018-09-10T21:49:07.478Z,70.29
2018-09-10T21:51:36.349Z,70.66
2018-09-10T21:54:05.252Z,70.44
2018-09-10T21:56:34.077Z,70.36
2018-09-10T21:59:02.938Z,70.49
2018-09-10T22:01:31.752Z,70.63
2018-09-10T22:04:00.625Z,69.52
2018-09-10T22:06:29.503Z,70.09
2018-09-10T22:08:58.362Z,70.57
2018-09-10T22:11:27.216Z,70.24
2018-09-10T22:13:56.071Z,70.59
2018-09-10T22:16:24.917Z,69.52
2018-09-10T22:18:53.795Z,69.11
2018-09-10T22:21:22.650Z,70.11
2018-09-10T22:23:51.526Z,70.27
2018-09-10T22:26:20.389Z,70.50
2018-09-10T22:28:49.349Z,69.19
2018-09-10T22:31:18.124Z,70.34
2018-09-10T22:33:47.017Z,70.25
2018-09-10T22:36:15.880Z,70.77
2018-09-10T22:38:44.785Z,70.75
2018-09-10T22:41:13.658Z,71.32
2018-09-10T22:43:42.565Z,71.12
2018-09-10T22:46:11.442Z,71.37
2018-09-10T22:48:40.350Z,69.83
2018-09-10T22:51:09.237Z,69.44
2018-09-10T22:53:38.127Z,70.87
2018-09-10T22:56:07.023Z,71.36
2018-09-10T22:58:35.987Z,71.22
2018-09-10T23:01:04.852Z,71.28
2018-09-10T23:03:33.689Z,71.44
2018-09-10T23:06:02.582Z,71.58
2018-09-10T23:08:31.528Z,71.83
2018-09-10T23:11:00.340Z,70.85
2018-09-10T23:13:29.171Z,71.92
2018-09-10T23:15:58.077Z,71.94
2018-09-10T23:18:27.044Z,72.03
2018-09-10T23:20:55.923Z,71.61
2018-09-10T23:23:24.817Z,71.64
2018-09-10T23:25:53.685Z,71.78
2018-09-10T23:28:22.593Z,71.44
2018-09-10T23:30:51.428Z,71.53
2018-09-10T23:33:20.373Z,71.60
2018-09-10T23:35:49.271Z,71.74
2018-09-10T23:38:18.145Z,72.13
2018-09-10T23:40:47.059Z,70.69
2018-09-10T23:43:15.927Z,69.99
2018-09-10T23:45:44.820Z,69.28
2018-09-10T23:48:13.676Z,70.67
2018-09-10T23:50:42.551Z,70.89
2018-09-10T23:53:11.427Z,70.43
2018-09-10T23:55:40.282Z,70.32
2018-09-10T23:58:09.100Z,70.39
